SBCG/CGR METAR and TAF weather

Enter ICAO airport designator
Station Type Date Time Source
SBCG METAR 2024/02/26 17:00 UTC NOAA

SBCG 261700Z VRB04KT 9999 BKN040 35/20 Q1015


Station Type Date Time Source
SBCG Decoded METAR 2024/02/26 17:00 UTC NOAA

Campo Grande Aeroporto , Brazil (SBCG) 20-28S 054-40W 567M
Feb 26, 2024 - 12:00 PM EST / 2024.02.26 1700 UTC
Wind: Variable at 5 MPH (4 KT):0
Visibility: greater than 7 mile(s):0
Sky conditions: mostly cloudy
Temperature: 95 F (35 C)
Heat index: 99.5 F (37.5 C):1
Dew Point: 68 F (20 C)
Relative Humidity: 41%
Pressure (altimeter): 29.97 in. Hg (1015 hPa)
ob: SBCG 261700Z VRB04KT 9999 BKN040 35/20 Q1015
cycle: 17

Station Type Date Time Source
SBCG TAF 2024/02/26 18:36 UTC NOAA